Capitol Logistics 3273


MYGF
Grand Bahama International Airport
Freeport, BS
MYNN
Lynden Pindling International Airport
Nassau, BS

Activity Log

Date Flight Route Aircraft Duration
04/11/2020 CPX3273 ZFP BR65V ZQA SF34 0h 56m
11/05/2019 CPX673 ZFP BR65V ZQA SF34 0h 56m
10/11/2019 CPX673 ZFP BR65V ZQA SF34 0h 47m
09/14/2019 CPX673 ZFP BR65V ZQA SF34 0h 36m
06/27/2019 CPX673 ZFP BR65V ZQA SF34 0h 38m
06/25/2019 CPX673 ZFP BR65V ZQA SF34 0h 45m

Route Details

Aircraft Information
Primary: Saab 340AF
Backup: Not Available
Route Data
Distance: 113nm
Sched. Duration: 2h 00m
Avg. Duration: 0h 46m (-154m)
Times Flown: 6
Recm'd Route: ZFP BR65V ZQA
Planned Altitude: 15,000ft
Origin Wx: MYGF 030000Z 10010KT 9999 SCT020 BKN100 OVC180 27/23 A3007
Dest. Wx: MYNN 030300Z 11010KT 9999 BKN020 27/23 A3008
Notes:

Financial History
Total Freight: 39,270lbs
Average Load: 6,545lbs/flt
Fuel Used: 3,935lbs
Avg. Fuel Used: 656lbs/flt
Fuel Expense: $3,581
Avg. Fuel Expense: $597
Avg. Fuel Cost: $0.91/lbs
Total Gross Income: $44,824
Pilot Pay: $1,294
Total Expenses: $5,153
Total Revenue: $35,043
Average Revenue: $7,470.65